createdAt,value
2023-04-26T00:01:27.831Z,19.20
2023-04-26T00:04:01.176Z,19.20
2023-04-26T00:06:35.108Z,19.20
2023-04-26T00:09:08.170Z,19.20
2023-04-26T00:11:40.562Z,19.20
2023-04-26T00:14:13.307Z,19.20
2023-04-26T00:16:45.993Z,19.10
2023-04-26T00:19:18.704Z,19.10
2023-04-26T00:21:51.270Z,19.10
2023-04-26T00:24:23.772Z,19.10
2023-04-26T00:26:56.577Z,19.10
2023-04-26T00:29:29.080Z,19.00
2023-04-26T00:32:01.758Z,19.10
2023-04-26T00:34:38.268Z,19.00
2023-04-26T00:37:10.921Z,19.00
2023-04-26T00:39:43.618Z,19.00
2023-04-26T00:42:16.106Z,19.00
2023-04-26T00:44:50.452Z,19.00
2023-04-26T00:47:23.096Z,19.00
2023-04-26T00:49:56.357Z,19.00
2023-04-26T00:52:28.987Z,19.00
2023-04-26T00:55:01.685Z,19.00
2023-04-26T00:57:34.189Z,19.00
2023-04-26T01:00:07.908Z,19.00
2023-04-26T01:02:41.791Z,19.00
2023-04-26T01:05:14.915Z,19.00
2023-04-26T01:07:50.266Z,19.00
2023-04-26T01:10:23.000Z,19.00
2023-04-26T01:12:58.107Z,19.00
2023-04-26T01:15:31.241Z,19.00
2023-04-26T01:18:03.647Z,19.00
2023-04-26T01:20:36.301Z,19.00
2023-04-26T01:23:09.696Z,18.90
2023-04-26T01:25:42.361Z,18.90
2023-04-26T01:28:14.972Z,18.90
2023-04-26T01:30:47.786Z,18.90
2023-04-26T01:33:20.381Z,18.90
2023-04-26T01:35:52.929Z,18.90
2023-04-26T01:38:26.021Z,18.90
2023-04-26T01:40:59.878Z,18.90
2023-04-26T01:43:32.600Z,18.90
2023-04-26T01:46:05.202Z,18.90
2023-04-26T01:48:37.673Z,18.90
2023-04-26T01:51:10.210Z,18.90
2023-04-26T01:53:42.841Z,18.90
2023-04-26T01:56:15.483Z,18.90
2023-04-26T01:58:48.001Z,18.90
2023-04-26T02:01:20.539Z,18.90
2023-04-26T02:03:53.416Z,18.90
2023-04-26T02:06:26.658Z,18.90
2023-04-26T02:08:59.251Z,18.90
2023-04-26T02:11:31.962Z,18.90
2023-04-26T02:14:04.468Z,18.90
2023-04-26T02:16:37.147Z,18.90
2023-04-26T02:19:12.897Z,18.90
2023-04-26T02:21:58.176Z,18.90
2023-04-26T02:24:32.456Z,18.90
2023-04-26T02:27:08.060Z,18.90
2023-04-26T02:29:44.360Z,18.90
2023-04-26T02:32:18.329Z,18.90
2023-04-26T02:34:50.921Z,18.90
2023-04-26T02:37:23.421Z,18.90
2023-04-26T02:39:56.253Z,18.90
2023-04-26T02:42:28.917Z,18.90
2023-04-26T02:45:01.892Z,19.00
2023-04-26T02:47:37.149Z,18.90
2023-04-26T02:50:10.638Z,18.90
2023-04-26T02:52:43.731Z,18.90
2023-04-26T02:55:16.682Z,18.90
2023-04-26T02:57:49.267Z,19.00
2023-04-26T03:00:22.437Z,19.00
2023-04-26T03:02:55.031Z,19.10
2023-04-26T03:05:27.718Z,19.00
2023-04-26T03:08:00.599Z,19.10
2023-04-26T03:10:33.233Z,19.10
2023-04-26T03:13:06.386Z,19.10
2023-04-26T03:15:38.995Z,19.20
2023-04-26T03:18:11.583Z,19.20
2023-04-26T03:20:44.199Z,19.20
2023-04-26T03:23:16.938Z,19.30
2023-04-26T03:25:49.541Z,19.30
2023-04-26T03:28:22.227Z,19.30
2023-04-26T03:30:54.737Z,19.40
2023-04-26T03:33:27.299Z,19.40
2023-04-26T03:35:59.867Z,19.40
2023-04-26T03:38:32.759Z,19.40
2023-04-26T03:41:05.531Z,19.40
2023-04-26T03:43:38.056Z,19.40
2023-04-26T03:46:11.545Z,19.40
2023-04-26T03:48:44.168Z,19.40
2023-04-26T03:51:16.905Z,19.40
2023-04-26T03:53:49.423Z,19.40
2023-04-26T03:56:22.259Z,19.40
2023-04-26T03:58:55.181Z,19.40
2023-04-26T04:01:27.941Z,19.40
2023-04-26T04:04:01.015Z,19.40
2023-04-26T04:06:34.709Z,19.40
2023-04-26T04:09:07.260Z,19.30
2023-04-26T04:11:39.914Z,19.30
2023-04-26T04:14:12.610Z,19.30
2023-04-26T04:16:45.321Z,19.30
2023-04-26T04:19:17.930Z,19.30
2023-04-26T04:21:51.125Z,19.30
2023-04-26T04:24:24.694Z,19.30
2023-04-26T04:26:58.234Z,19.40
2023-04-26T04:29:31.873Z,19.40
2023-04-26T04:32:05.404Z,19.40
2023-04-26T04:34:39.683Z,19.40
2023-04-26T04:37:12.357Z,19.50
2023-04-26T04:39:44.910Z,19.50
2023-04-26T04:42:20.315Z,19.50
2023-04-26T04:44:53.604Z,19.60
2023-04-26T04:47:26.277Z,19.50
2023-04-26T04:49:59.290Z,19.60
2023-04-26T04:52:33.556Z,19.60
2023-04-26T04:55:06.575Z,19.60
2023-04-26T04:57:42.897Z,19.60
2023-04-26T05:00:17.144Z,19.60
2023-04-26T05:02:57.594Z,19.70
2023-04-26T05:05:31.816Z,19.70
2023-04-26T05:08:04.543Z,19.90
2023-04-26T05:10:37.194Z,20.10
2023-04-26T05:13:09.809Z,20.40
2023-04-26T05:15:42.939Z,20.60
2023-04-26T05:18:15.596Z,20.90
2023-04-26T05:20:48.187Z,21.00
2023-04-26T05:23:20.869Z,21.40
2023-04-26T05:25:53.412Z,21.90
2023-04-26T05:28:44.514Z,22.20
2023-04-26T05:31:42.175Z,22.50
2023-04-26T05:34:41.535Z,22.60
2023-04-26T05:37:17.718Z,23.00
2023-04-26T05:39:51.196Z,23.30
2023-04-26T05:42:23.686Z,23.60
2023-04-26T05:44:59.793Z,23.90
2023-04-26T05:47:33.539Z,24.10
2023-04-26T05:50:07.097Z,24.20
2023-04-26T05:52:39.758Z,24.30
2023-04-26T05:55:13.607Z,24.30
2023-04-26T05:57:46.986Z,24.40
2023-04-26T06:00:22.867Z,24.30
2023-04-26T06:02:55.525Z,24.30
2023-04-26T06:05:28.717Z,24.30
2023-04-26T06:08:01.947Z,24.30
2023-04-26T06:10:36.823Z,24.40
2023-04-26T06:13:09.553Z,24.40
2023-04-26T06:15:43.042Z,24.30
2023-04-26T06:18:16.023Z,24.40
2023-04-26T06:20:48.475Z,24.40
2023-04-26T06:23:20.978Z,24.50
2023-04-26T06:25:53.503Z,24.50
2023-04-26T06:28:26.266Z,24.60
2023-04-26T06:30:59.024Z,24.60
2023-04-26T06:33:31.735Z,24.60
2023-04-26T06:36:04.919Z,24.70
2023-04-26T06:38:37.882Z,24.70
2023-04-26T06:41:10.540Z,24.80
2023-04-26T06:43:44.398Z,24.80
2023-04-26T06:46:27.327Z,24.90
2023-04-26T06:48:59.933Z,24.90
2023-04-26T06:51:32.650Z,24.80
2023-04-26T06:54:05.770Z,24.70
2023-04-26T06:56:38.299Z,24.60
2023-04-26T06:59:10.827Z,24.30
2023-04-26T07:01:43.507Z,24.10
2023-04-26T07:04:18.909Z,23.90
2023-04-26T07:06:51.649Z,23.70
2023-04-26T07:09:24.114Z,23.60
2023-04-26T07:11:56.724Z,23.50
2023-04-26T07:14:29.198Z,23.60
2023-04-26T07:17:01.812Z,23.60
2023-04-26T07:19:34.353Z,23.70
2023-04-26T07:22:06.994Z,23.70
2023-04-26T07:24:39.809Z,23.80
2023-04-26T07:27:12.386Z,23.80
2023-04-26T07:29:44.981Z,23.80
2023-04-26T07:32:17.568Z,23.90
2023-04-26T07:34:50.350Z,23.90
2023-04-26T07:37:23.001Z,23.90
2023-04-26T07:39:55.574Z,23.90
2023-04-26T07:42:28.087Z,24.00
2023-04-26T07:45:01.189Z,23.90
2023-04-26T07:47:33.666Z,23.80
2023-04-26T07:50:06.876Z,23.70
2023-04-26T07:52:39.654Z,23.70
2023-04-26T07:55:12.201Z,23.60
2023-04-26T07:57:44.737Z,23.50
2023-04-26T08:00:19.112Z,23.30
2023-04-26T08:02:51.897Z,23.30
2023-04-26T08:05:24.779Z,23.30
2023-04-26T08:07:57.587Z,23.30
2023-04-26T08:10:30.434Z,23.20
2023-04-26T08:13:03.679Z,23.20
2023-04-26T08:15:36.176Z,23.10
2023-04-26T08:18:08.912Z,23.10
2023-04-26T08:20:42.079Z,23.00
2023-04-26T08:23:14.647Z,23.00
2023-04-26T08:25:48.055Z,22.90
2023-04-26T08:28:21.442Z,22.90
2023-04-26T08:30:54.061Z,22.90
2023-04-26T08:33:26.830Z,23.00
2023-04-26T08:36:00.199Z,22.90
2023-04-26T08:38:32.906Z,23.10
2023-04-26T08:41:06.219Z,23.10
2023-04-26T08:43:39.290Z,23.20
2023-04-26T08:46:14.039Z,23.10
2023-04-26T08:48:56.491Z,23.10
2023-04-26T08:51:30.147Z,23.10
2023-04-26T08:54:05.175Z,23.20
2023-04-26T08:56:39.501Z,23.20
2023-04-26T08:59:15.036Z,23.30
2023-04-26T09:01:49.020Z,23.40
2023-04-26T09:04:21.778Z,23.50
2023-04-26T09:06:59.780Z,23.60
2023-04-26T09:09:39.287Z,23.60
2023-04-26T09:12:11.781Z,23.60
2023-04-26T09:14:44.357Z,23.50
2023-04-26T09:17:33.315Z,23.50
2023-04-26T09:20:26.676Z,23.50
2023-04-26T09:23:09.056Z,23.50
2023-04-26T09:25:41.655Z,23.60
2023-04-26T09:28:24.933Z,23.50
2023-04-26T09:30:57.533Z,23.50
2023-04-26T09:33:30.176Z,23.50
2023-04-26T09:36:14.922Z,23.40
2023-04-26T09:38:47.523Z,23.40
2023-04-26T09:41:20.169Z,23.40
2023-04-26T09:43:53.204Z,23.40
2023-04-26T09:46:25.980Z,23.40
2023-04-26T09:49:03.207Z,23.30
2023-04-26T09:51:35.812Z,23.30
2023-04-26T09:54:08.318Z,23.30
2023-04-26T09:56:40.900Z,23.30
2023-04-26T09:59:13.464Z,23.30
2023-04-26T10:01:46.136Z,23.30
2023-04-26T10:04:18.803Z,23.30
2023-04-26T10:06:51.393Z,23.40
2023-04-26T10:09:24.166Z,23.40
2023-04-26T10:11:58.360Z,23.50
2023-04-26T10:14:31.400Z,23.50
2023-04-26T10:17:04.806Z,23.50
2023-04-26T10:19:38.747Z,23.40
2023-04-26T10:22:31.615Z,23.40
2023-04-26T10:25:04.384Z,23.40
2023-04-26T10:27:46.072Z,23.30
2023-04-26T10:30:21.602Z,23.20
2023-04-26T10:32:56.963Z,23.20
2023-04-26T10:35:33.436Z,23.20
2023-04-26T10:38:09.411Z,23.10
2023-04-26T10:40:42.135Z,23.10
2023-04-26T10:43:18.466Z,23.10
2023-04-26T10:45:58.861Z,23.10
2023-04-26T10:48:34.625Z,23.00
2023-04-26T10:51:13.203Z,23.00
2023-04-26T10:53:48.724Z,22.90
2023-04-26T10:56:24.484Z,22.90
2023-04-26T10:59:30.717Z,22.70
2023-04-26T11:02:02.272Z,22.60
2023-04-26T11:04:53.427Z,22.60
2023-04-26T11:07:41.049Z,22.50
2023-04-26T11:10:23.406Z,22.50
2023-04-26T11:13:08.007Z,22.50
2023-04-26T11:15:40.795Z,22.40
2023-04-26T11:18:13.377Z,22.40
2023-04-26T11:20:46.450Z,22.40
2023-04-26T11:23:20.210Z,22.30
2023-04-26T11:25:53.137Z,22.30
2023-04-26T11:28:25.982Z,22.20
2023-04-26T11:30:59.280Z,22.20
2023-04-26T11:33:34.529Z,22.20
2023-04-26T11:36:07.404Z,22.10
2023-04-26T11:38:40.010Z,22.10
2023-04-26T11:41:12.605Z,22.10
2023-04-26T11:43:45.108Z,22.00
2023-04-26T11:46:22.261Z,22.00
2023-04-26T11:48:55.292Z,22.00
2023-04-26T11:51:29.564Z,21.90
2023-04-26T11:54:03.673Z,21.90
2023-04-26T11:56:36.295Z,21.90
2023-04-26T11:59:08.908Z,21.90
2023-04-26T12:01:52.742Z,21.90
2023-04-26T12:04:31.931Z,21.80
2023-04-26T12:07:05.424Z,21.80
2023-04-26T12:09:42.509Z,21.90
2023-04-26T12:12:14.985Z,21.80
2023-04-26T12:14:47.908Z,21.70
2023-04-26T12:17:20.513Z,21.60
2023-04-26T12:19:53.165Z,21.60
2023-04-26T12:22:25.695Z,21.60
2023-04-26T12:25:06.649Z,21.50
2023-04-26T12:27:39.822Z,21.50
2023-04-26T12:30:13.273Z,21.40
2023-04-26T12:32:45.825Z,21.40
2023-04-26T12:35:18.389Z,21.40
2023-04-26T12:37:54.007Z,21.40
2023-04-26T12:40:27.685Z,21.30
2023-04-26T12:43:00.297Z,21.40
2023-04-26T12:45:32.903Z,21.40
2023-04-26T12:48:05.833Z,21.40
2023-04-26T12:50:38.152Z,21.40
2023-04-26T12:53:14.314Z,21.40
2023-04-26T12:55:46.880Z,21.50
2023-04-26T12:58:19.489Z,21.50
2023-04-26T13:00:52.067Z,21.50
2023-04-26T13:03:24.745Z,21.50
2023-04-26T13:05:57.284Z,21.50
2023-04-26T13:08:29.931Z,21.50
2023-04-26T13:11:02.419Z,21.50
2023-04-26T13:13:43.015Z,21.50
2023-04-26T13:16:17.049Z,21.50
2023-04-26T13:18:49.772Z,21.60
2023-04-26T13:21:22.371Z,21.60
2023-04-26T13:23:54.805Z,21.60
2023-04-26T13:26:27.928Z,21.60
2023-04-26T13:29:00.705Z,21.50
2023-04-26T13:31:33.359Z,21.60
2023-04-26T13:34:06.217Z,21.50
2023-04-26T13:36:38.988Z,21.50
2023-04-26T13:39:11.519Z,21.40
2023-04-26T13:41:44.284Z,21.40
2023-04-26T13:44:17.367Z,21.50
2023-04-26T13:46:49.776Z,21.50
2023-04-26T13:49:23.256Z,21.50
2023-04-26T13:51:55.880Z,21.50
2023-04-26T13:54:28.475Z,21.50
2023-04-26T13:57:01.008Z,21.50
2023-04-26T13:59:33.578Z,21.50
2023-04-26T14:02:06.778Z,21.50
2023-04-26T14:04:41.016Z,21.50
2023-04-26T14:07:13.654Z,21.50
2023-04-26T14:09:46.195Z,21.40
2023-04-26T14:12:18.712Z,21.40
2023-04-26T14:14:51.935Z,21.40
2023-04-26T14:17:25.881Z,21.50
2023-04-26T14:19:58.415Z,21.50
2023-04-26T14:22:30.982Z,21.50
2023-04-26T14:25:03.835Z,21.50
2023-04-26T14:27:39.720Z,21.50
2023-04-26T14:30:12.453Z,21.50
2023-04-26T14:32:45.741Z,21.40
2023-04-26T14:35:18.325Z,21.40
2023-04-26T14:37:50.876Z,21.40
2023-04-26T14:40:23.444Z,21.30
2023-04-26T14:42:56.165Z,21.30
2023-04-26T14:45:40.908Z,21.30
2023-04-26T14:48:17.248Z,21.30
2023-04-26T14:50:49.727Z,21.20
2023-04-26T14:53:22.273Z,21.20
2023-04-26T14:55:58.610Z,21.20
2023-04-26T14:58:31.372Z,21.10
2023-04-26T15:01:04.569Z,21.10
2023-04-26T15:03:37.447Z,21.10
2023-04-26T15:06:10.150Z,21.10
2023-04-26T15:08:42.602Z,21.00
2023-04-26T15:11:15.136Z,21.00
2023-04-26T15:13:47.639Z,21.00
2023-04-26T15:16:20.264Z,21.00
2023-04-26T15:18:52.983Z,20.90
2023-04-26T15:21:25.590Z,20.90
2023-04-26T15:23:58.283Z,20.90
2023-04-26T15:26:31.277Z,20.80
2023-04-26T15:29:03.677Z,20.80
2023-04-26T15:31:36.422Z,20.80
2023-04-26T15:34:14.857Z,20.80
2023-04-26T15:36:47.615Z,20.80
2023-04-26T15:39:20.688Z,20.80
2023-04-26T15:41:53.521Z,20.80
2023-04-26T15:44:26.207Z,20.70
2023-04-26T15:46:58.894Z,20.70
2023-04-26T15:49:31.580Z,20.70
2023-04-26T15:52:04.224Z,20.70
2023-04-26T15:54:36.690Z,20.70
2023-04-26T15:57:09.325Z,20.60
2023-04-26T15:59:41.857Z,20.60
2023-04-26T16:02:14.485Z,20.60
2023-04-26T16:04:47.443Z,20.60
2023-04-26T16:07:20.464Z,20.50
2023-04-26T16:09:52.919Z,20.50
2023-04-26T16:12:25.782Z,20.50
2023-04-26T16:14:58.952Z,20.50
2023-04-26T16:17:32.306Z,20.40
2023-04-26T16:20:07.140Z,20.40
2023-04-26T16:22:39.605Z,20.30
2023-04-26T16:25:16.541Z,20.30
2023-04-26T16:27:51.005Z,20.30
2023-04-26T16:30:23.534Z,20.30
2023-04-26T16:32:56.532Z,20.30
2023-04-26T16:35:29.517Z,20.30
2023-04-26T16:38:02.276Z,20.20
2023-04-26T16:40:35.042Z,20.20
2023-04-26T16:43:09.461Z,20.20
2023-04-26T16:45:41.910Z,20.10
2023-04-26T16:48:14.530Z,20.10
2023-04-26T16:50:47.266Z,20.10
2023-04-26T16:53:21.388Z,20.10
2023-04-26T16:55:53.904Z,20.10
2023-04-26T16:58:26.687Z,20.10
2023-04-26T17:00:59.311Z,20.10
2023-04-26T17:03:32.179Z,20.10
2023-04-26T17:06:06.845Z,20.00
2023-04-26T17:08:39.392Z,20.00
2023-04-26T17:11:15.689Z,20.00
2023-04-26T17:13:48.195Z,20.00
2023-04-26T17:16:20.824Z,20.00
2023-04-26T17:18:53.439Z,20.00
2023-04-26T17:21:25.939Z,20.00
2023-04-26T17:23:58.428Z,20.00
2023-04-26T17:26:31.094Z,20.00
2023-04-26T17:29:03.622Z,20.00
2023-04-26T17:31:36.332Z,19.90
2023-04-26T17:34:08.895Z,19.90
2023-04-26T17:36:41.488Z,19.90
2023-04-26T17:39:14.056Z,19.90
2023-04-26T17:41:46.558Z,19.90
2023-04-26T17:44:19.153Z,19.90
2023-04-26T17:46:51.712Z,19.80
2023-04-26T17:49:26.078Z,19.80
2023-04-26T17:51:58.724Z,19.80
2023-04-26T17:54:31.380Z,19.80
2023-04-26T17:57:03.988Z,19.80
2023-04-26T17:59:36.614Z,19.70
2023-04-26T18:02:09.312Z,19.70
2023-04-26T18:04:42.311Z,19.70
2023-04-26T18:07:15.046Z,19.70
2023-04-26T18:09:47.548Z,19.70
2023-04-26T18:12:20.129Z,19.70
2023-04-26T18:14:52.645Z,19.60
2023-04-26T18:17:25.333Z,19.60
2023-04-26T18:19:57.908Z,19.60
2023-04-26T18:22:30.491Z,19.60
2023-04-26T18:25:04.084Z,19.50
2023-04-26T18:27:36.634Z,19.50
2023-04-26T18:30:09.764Z,19.50
2023-04-26T18:32:42.126Z,19.50
2023-04-26T18:35:14.804Z,19.50
2023-04-26T18:37:47.388Z,19.40
2023-04-26T18:40:19.974Z,19.40
2023-04-26T18:42:52.498Z,19.40
2023-04-26T18:45:25.082Z,19.40
2023-04-26T18:47:57.693Z,19.30
2023-04-26T18:50:30.321Z,19.30
2023-04-26T18:53:02.923Z,19.40
2023-04-26T18:55:35.555Z,19.30
2023-04-26T18:58:08.198Z,19.30
2023-04-26T19:00:40.854Z,19.30
2023-04-26T19:03:13.724Z,19.20
2023-04-26T19:05:46.377Z,19.20
2023-04-26T19:08:19.672Z,19.20
2023-04-26T19:10:52.181Z,19.20
2023-04-26T19:13:24.782Z,19.20
2023-04-26T19:15:57.343Z,19.20
2023-04-26T19:18:29.992Z,19.20
2023-04-26T19:21:07.114Z,19.20
2023-04-26T19:23:39.760Z,19.10
2023-04-26T19:26:12.728Z,19.10
2023-04-26T19:28:46.951Z,19.10
2023-04-26T19:31:20.066Z,19.10
2023-04-26T19:33:52.566Z,19.00
2023-04-26T19:36:25.688Z,19.00
2023-04-26T19:38:58.087Z,19.00
2023-04-26T19:41:30.705Z,19.00
2023-04-26T19:44:03.441Z,19.00
2023-04-26T19:46:37.246Z,19.00
2023-04-26T19:49:09.905Z,19.00
2023-04-26T19:51:42.366Z,19.00
2023-04-26T19:54:14.862Z,19.00
2023-04-26T19:56:48.256Z,18.90
2023-04-26T19:59:20.940Z,18.90
2023-04-26T20:01:54.367Z,18.90
2023-04-26T20:04:27.174Z,18.90
2023-04-26T20:06:59.872Z,18.90
2023-04-26T20:09:32.827Z,18.90
2023-04-26T20:12:08.102Z,18.90
2023-04-26T20:14:42.837Z,18.90
2023-04-26T20:17:15.848Z,18.90
2023-04-26T20:19:49.174Z,18.80
2023-04-26T20:22:21.714Z,18.80
2023-04-26T20:24:56.430Z,18.80
2023-04-26T20:27:32.114Z,18.80
2023-04-26T20:30:05.208Z,18.70
2023-04-26T20:32:37.786Z,18.70
2023-04-26T20:35:10.579Z,18.70
2023-04-26T20:37:46.145Z,18.70
2023-04-26T20:40:21.923Z,18.70
2023-04-26T20:42:54.513Z,18.70
2023-04-26T20:45:27.453Z,18.70
2023-04-26T20:48:00.029Z,18.70
2023-04-26T20:50:36.365Z,18.70
2023-04-26T20:53:09.145Z,18.60
2023-04-26T20:55:41.876Z,18.60
2023-04-26T20:58:17.379Z,18.60
2023-04-26T21:00:54.241Z,18.60
2023-04-26T21:03:27.275Z,18.60
2023-04-26T21:05:59.721Z,18.60
2023-04-26T21:08:36.013Z,18.60
2023-04-26T21:11:09.711Z,18.60
2023-04-26T21:13:46.854Z,18.60
2023-04-26T21:16:19.462Z,18.60
2023-04-26T21:18:52.763Z,18.60
2023-04-26T21:21:27.649Z,18.60
2023-04-26T21:24:01.196Z,18.60
2023-04-26T21:26:33.836Z,18.50
2023-04-26T21:29:13.164Z,18.60
2023-04-26T21:31:46.185Z,18.50
2023-04-26T21:34:18.721Z,18.50
2023-04-26T21:36:54.318Z,18.60
2023-04-26T21:39:26.852Z,18.60
2023-04-26T21:41:59.542Z,18.50
2023-04-26T21:44:32.112Z,18.50
2023-04-26T21:47:05.205Z,18.60
2023-04-26T21:49:39.736Z,18.60
2023-04-26T21:52:15.151Z,18.60
2023-04-26T21:54:47.986Z,18.60
2023-04-26T21:57:24.365Z,18.60
2023-04-26T21:59:56.937Z,18.60
2023-04-26T22:02:29.843Z,18.60
2023-04-26T22:05:02.590Z,18.60
2023-04-26T22:07:35.589Z,18.60
2023-04-26T22:10:08.555Z,18.60
2023-04-26T22:12:44.635Z,18.60
2023-04-26T22:15:20.406Z,18.50
2023-04-26T22:17:53.116Z,18.50
2023-04-26T22:20:26.743Z,18.50
2023-04-26T22:22:59.503Z,18.50
2023-04-26T22:25:32.687Z,18.50
2023-04-26T22:28:05.686Z,18.50
2023-04-26T22:30:41.223Z,18.50
2023-04-26T22:33:14.050Z,18.60
2023-04-26T22:35:46.776Z,18.60
2023-04-26T22:38:22.033Z,18.60
2023-04-26T22:40:54.838Z,18.60
2023-04-26T22:43:27.477Z,18.60
2023-04-26T22:46:00.109Z,18.60
2023-04-26T22:48:32.733Z,18.60
2023-04-26T22:51:08.531Z,18.60
2023-04-26T22:53:41.263Z,18.60
2023-04-26T22:56:16.648Z,18.60
2023-04-26T22:58:49.349Z,18.60
2023-04-26T23:01:21.941Z,18.60
2023-04-26T23:03:54.839Z,18.60
2023-04-26T23:06:28.314Z,18.60
2023-04-26T23:09:01.090Z,18.60
2023-04-26T23:11:33.830Z,18.60
2023-04-26T23:14:07.294Z,18.60
2023-04-26T23:16:39.944Z,18.60
2023-04-26T23:19:13.008Z,18.60
2023-04-26T23:21:46.122Z,18.60
2023-04-26T23:24:18.801Z,18.60
2023-04-26T23:26:51.477Z,18.60
2023-04-26T23:29:24.021Z,18.60
2023-04-26T23:31:56.575Z,18.60
2023-04-26T23:34:29.173Z,18.50
2023-04-26T23:37:07.445Z,18.50
2023-04-26T23:39:40.892Z,18.50
2023-04-26T23:42:13.432Z,18.50
2023-04-26T23:44:46.034Z,18.50
2023-04-26T23:47:18.504Z,18.50
2023-04-26T23:49:51.165Z,18.50
2023-04-26T23:52:23.764Z,18.50
2023-04-26T23:54:56.604Z,18.50
2023-04-26T23:57:29.160Z,18.50
